Time;durP1;ratioP1;P1;durP2;ratioP2;P2;SDS_P1;SDS_P2;PMS_P1;PMS_P2;Temp;Humidity;BMP_temperature;BMP_pressure;BME280_temperature;BME280_humidity;BME280_pressure;Samples;Min_cycle;Max_cycle;Signal;HPM_P1;HPM_P2
2023/03/14 00:00:14;;;;;;;0.20;0.15;;;;;;;14.07;90.61;98107.22;5009041;28;20044;-48
2023/03/14 00:02:40;;;;;;;0.20;0.15;;;;;;;14.04;90.67;98112.78;5015605;28;20049;-47
2023/03/14 00:05:09;;;;;;;0.10;0.10;;;;;;;14.13;90.20;98113.59;5021755;28;20400;-49
2023/03/14 00:07:39;;;;;;;0.08;0.08;;;;;;;14.10;90.05;98117.19;5014122;28;20036;-43
2023/03/14 00:10:08;;;;;;;0.13;0.10;;;;;;;14.15;89.16;98135.56;5026762;28;20045;-52
2023/03/14 00:12:33;;;;;;;0.00;0.00;;;;;;;14.07;89.12;98145.13;5029460;28;20073;-47
2023/03/14 00:15:00;;;;;;;1.17;0.17;;;;;;;14.09;88.95;98161.69;5025782;28;20069;-47
2023/03/14 00:17:27;;;;;;;0.10;0.10;;;;;;;13.90;89.07;98160.03;5012771;28;20457;-43
2023/03/14 00:19:53;;;;;;;0.05;0.05;;;;;;;13.79;90.12;98162.34;5023656;28;20045;-53
2023/03/14 00:22:20;;;;;;;0.43;0.25;;;;;;;13.82;90.03;98147.91;5027718;28;20041;-45
2023/03/14 00:24:45;;;;;;;0.20;0.20;;;;;;;13.76;90.30;98155.09;5019128;28;20034;-45
2023/03/14 00:27:11;;;;;;;0.15;0.15;;;;;;;13.75;90.94;98145.47;5025310;28;20375;-46
2023/03/14 00:29:37;;;;;;;0.13;0.13;;;;;;;13.77;90.01;98137.66;5019685;28;20041;-42
2023/03/14 00:32:03;;;;;;;0.30;0.30;;;;;;;13.81;89.74;98137.53;5030090;28;20374;-46
2023/03/14 00:34:29;;;;;;;0.17;0.17;;;;;;;13.79;90.31;98123.69;5020624;28;20049;-51
2023/03/14 00:36:55;;;;;;;0.10;0.10;;;;;;;13.93;89.32;98140.22;5020191;28;20049;-48
2023/03/14 00:39:20;;;;;;;0.20;0.20;;;;;;;13.82;89.47;98126.28;5029667;28;20035;-44
2023/03/14 00:41:46;;;;;;;0.10;0.10;;;;;;;13.78;89.78;98122.19;5033116;28;20033;-44
2023/03/14 00:44:11;;;;;;;0.00;0.00;;;;;;;13.78;90.13;98122.19;5035408;28;20033;-46
2023/03/14 00:46:37;;;;;;;0.10;0.10;;;;;;;13.74;89.22;98106.09;5026903;28;20036;-52
2023/03/14 00:49:02;;;;;;;1.45;0.55;;;;;;;13.85;89.23;98100.31;5034534;28;20695;-43
2023/03/14 00:51:28;;;;;;;0.32;0.17;;;;;;;13.75;89.60;98093.31;5033363;28;20033;-45
2023/03/14 00:53:54;;;;;;;0.25;0.25;;;;;;;13.67;90.47;98090.09;5031986;28;20041;-48
2023/03/14 00:56:20;;;;;;;0.25;0.25;;;;;;;13.75;90.12;98087.88;5028554;28;20049;-51
2023/03/14 00:58:45;;;;;;;0.20;0.20;;;;;;;13.59;90.08;98086.09;5029162;28;20041;-43
2023/03/14 01:01:17;;;;;;;0.00;0.00;;;;;;;13.64;89.71;98077.44;5028192;28;20679;-47
2023/03/14 01:03:43;;;;;;;0.32;0.08;;;;;;;13.65;90.38;98084.34;5019764;28;20107;-42
2023/03/14 01:06:10;;;;;;;0.10;0.10;;;;;;;13.65;89.88;98097.88;5028416;28;20728;-47
2023/03/14 01:08:36;;;;;;;0.10;0.10;;;;;;;13.63;89.69;98104.94;5038194;28;20048;-53
2023/03/14 01:11:06;;;;;;;0.05;0.05;;;;;;;13.57;89.37;98123.66;5031392;28;20548;-43
2023/03/14 01:13:32;;;;;;;0.45;0.45;;;;;;;13.40;90.29;98136.56;5028178;28;20029;-50
2023/03/14 01:16:02;;;;;;;0.28;0.20;;;;;;;13.50;90.76;98134.72;5031466;28;20513;-45
2023/03/14 01:18:27;;;;;;;0.27;0.10;;;;;;;13.59;90.42;98134.78;5044449;28;20057;-43
2023/03/14 01:20:53;;;;;;;0.20;0.20;;;;;;;13.67;89.58;98132.59;5027932;28;20494;-43
2023/03/14 01:23:18;;;;;;;1.30;1.13;;;;;;;13.62;89.33;98131.22;5044199;28;20066;-53
2023/03/14 01:25:44;;;;;;;0.57;0.43;;;;;;;13.66;90.04;98126.44;5030007;28;20044;-51
2023/03/14 01:28:10;;;;;;;0.30;0.30;;;;;;;13.62;90.01;98122.34;5047126;28;20387;-44
2023/03/14 01:30:36;;;;;;;0.13;0.10;;;;;;;13.53;90.88;98110.25;5028702;28;20048;-53
2023/03/14 01:33:01;;;;;;;0.13;0.13;;;;;;;13.63;90.34;98088.72;5021342;28;20033;-48
2023/03/14 01:35:27;;;;;;;1.17;0.30;;;;;;;13.58;90.53;98077.25;5031783;28;20036;-54
2023/03/14 01:37:53;;;;;;;0.10;0.10;;;;;;;13.64;90.24;98072.03;5028211;28;20029;-46
2023/03/14 01:40:21;;;;;;;0.13;0.13;;;;;;;13.67;89.53;98079.28;5045614;28;20032;-43
2023/03/14 01:42:57;;;;;;;0.10;0.10;;;;;;;13.70;89.13;98062.19;5033039;28;20031;-44
2023/03/14 01:46:00;;;;;;;0.30;0.30;;;;;;;13.67;89.11;98060.34;5030045;28;20037;-44
2023/03/14 01:48:31;;;;;;;0.10;0.10;;;;;;;13.48;89.59;98067.56;5031435;28;20429;-48
2023/03/14 01:50:59;;;;;;;0.17;0.17;;;;;;;13.48;90.20;98069.50;5030625;28;20884;-43
2023/03/14 01:53:24;;;;;;;0.22;0.10;;;;;;;13.48;90.04;98069.50;5042566;28;20099;-53
2023/03/14 01:55:52;;;;;;;0.20;0.20;;;;;;;13.48;90.21;98055.97;5024609;28;20041;-51
2023/03/14 01:58:19;;;;;;;0.32;0.32;;;;;;;13.64;89.87;98041.53;5026409;28;20041;-42
2023/03/14 02:00:45;;;;;;;0.10;0.10;;;;;;;13.62;89.71;98044.69;5027198;28;20063;-46
2023/03/14 02:03:16;;;;;;;0.30;0.30;;;;;;;13.67;89.82;98044.09;5023181;28;20029;-51
2023/03/14 02:05:44;;;;;;;0.22;0.22;;;;;;;13.49;90.20;98036.59;5023615;28;20048;-47
2023/03/14 02:08:14;;;;;;;;;;;;;;;13.64;89.16;98039.59;5025481;28;20036;-43
2023/03/14 02:10:51;;;;;;;0.20;0.20;;;;;;;13.69;88.85;98040.97;5030253;28;19913;-44
2023/03/14 02:13:23;;;;;;;4.90;0.30;;;;;;;13.56;89.82;98044.50;5029398;28;20033;-53
2023/03/14 02:15:54;;;;;;;0.20;0.20;;;;;;;13.63;89.29;98029.94;5031484;28;20045;-48
2023/03/14 02:18:40;;;;;;;0.55;0.25;;;;;;;13.50;90.16;98004.91;5030638;28;20064;-50
2023/03/14 02:22:08;;;;;;;0.08;0.03;;;;;;;13.68;88.56;97969.91;5002635;28;20034;-50
2023/03/14 02:25:00;;;;;;;0.88;0.20;;;;;;;13.58;88.89;97976.44;5029219;28;20035;-43
2023/03/14 02:27:26;;;;;;;0.98;0.95;;;;;;;13.43;88.37;97967.31;5029995;28;20029;-51
2023/03/14 02:30:00;;;;;;;0.10;0.10;;;;;;;13.51;88.29;97979.41;5028856;28;20112;-48
2023/03/14 02:32:30;;;;;;;0.10;0.10;;;;;;;13.49;88.41;97992.59;5026393;28;20048;-49
2023/03/14 02:35:03;;;;;;;0.47;0.35;;;;;;;13.54;87.71;97981.97;5034607;28;20034;-49
2023/03/14 02:37:36;;;;;;;0.28;0.28;;;;;;;13.59;87.17;97986.06;5039337;28;20060;-45
2023/03/14 02:40:04;;;;;;;0.47;0.32;;;;;;;13.64;87.25;97980.09;5031137;28;20496;-43
2023/03/14 02:42:31;;;;;;;2.42;0.47;;;;;;;13.52;87.65;97987.06;5040255;28;20029;-44
2023/03/14 02:45:22;;;;;;;0.55;0.17;;;;;;;13.56;87.19;98003.16;5033808;28;20492;-45
2023/03/14 02:47:54;;;;;;;0.32;0.25;;;;;;;13.49;87.04;98003.44;5035212;28;20037;-47
2023/03/14 02:50:26;;;;;;;0.28;0.28;;;;;;;13.53;87.18;98004.03;5030258;28;20104;-54
2023/03/14 02:52:53;;;;;;;;;;;;;;;13.30;87.82;98002.50;5035550;28;20719;-49
2023/03/14 02:55:23;;;;;;;0.52;0.52;;;;;;;13.40;87.87;98006.03;5031341;28;20015;-47
2023/03/14 02:57:50;;;;;;;0.47;0.32;;;;;;;13.37;87.94;98001.53;5038028;28;20116;-44
2023/03/14 03:00:16;;;;;;;0.65;0.50;;;;;;;13.34;88.14;98010.50;5024993;28;20104;-50
2023/03/14 03:02:42;;;;;;;0.20;0.20;;;;;;;13.22;88.30;98000.50;5033229;28;20167;-45
2023/03/14 03:05:08;;;;;;;0.20;0.20;;;;;;;13.22;88.15;97998.53;5029468;28;20033;-52
2023/03/14 03:07:34;;;;;;;0.20;0.20;;;;;;;13.30;88.56;98007.16;5025552;28;20488;-44
2023/03/14 03:09:59;;;;;;;0.55;0.30;;;;;;;13.09;88.72;97997.81;5029173;28;20036;-45
2023/03/14 03:12:25;;;;;;;0.10;0.10;;;;;;;13.20;88.84;98000.19;5027986;28;20025;-54
2023/03/14 03:14:51;;;;;;;0.47;0.47;;;;;;;13.22;88.81;97995.09;5029356;28;20634;-53
2023/03/14 03:17:17;;;;;;;0.20;0.20;;;;;;;13.09;89.46;98002.44;5029096;28;20047;-43
2023/03/14 03:19:43;;;;;;;0.75;0.15;;;;;;;13.13;89.79;98000.41;5029967;28;20048;-53
2023/03/14 03:22:09;;;;;;;0.00;0.00;;;;;;;13.02;89.99;98002.66;5041032;28;20129;-45
2023/03/14 03:24:35;;;;;;;0.20;0.20;;;;;;;12.98;89.73;97997.38;5029908;28;20116;-51
2023/03/14 03:27:01;;;;;;;0.22;0.20;;;;;;;13.08;89.66;97993.63;5029749;28;20033;-53
2023/03/14 03:29:27;;;;;;;0.25;0.25;;;;;;;13.20;89.58;97995.50;5025357;28;20488;-47
2023/03/14 03:31:53;;;;;;;0.00;0.00;;;;;;;13.31;88.61;97987.81;5011301;28;20100;-49
2023/03/14 03:34:19;;;;;;;1.55;0.10;;;;;;;13.38;88.91;97995.66;5022994;28;20042;-47
2023/03/14 03:36:48;;;;;;;0.10;0.10;;;;;;;13.28;88.85;97982.50;5025404;28;20057;-48
2023/03/14 03:39:14;;;;;;;1.13;0.30;;;;;;;13.24;89.38;97971.09;5024348;28;22616;-53
2023/03/14 03:41:39;;;;;;;0.10;0.10;;;;;;;13.42;88.49;97976.63;5022413;28;20037;-47
2023/03/14 03:44:05;;;;;;;0.30;0.30;;;;;;;-144.12;100.00;72078.50;5031939;28;20032;-47
2023/03/14 03:46:31;;;;;;;0.20;0.20;;;;;;;13.43;88.05;97975.44;5043231;28;20029;-50
2023/03/14 03:48:59;;;;;;;0.15;0.10;;;;;;;13.48;88.02;97961.34;5023026;28;20498;-52
2023/03/14 03:51:26;;;;;;;0.75;0.57;;;;;;;13.39;87.84;97959.31;5000972;28;20124;-50
2023/03/14 03:53:52;;;;;;;0.10;0.10;;;;;;;13.27;88.29;97957.44;5025752;28;20032;-47
2023/03/14 03:56:26;;;;;;;0.25;0.20;;;;;;;13.35;88.42;97952.53;5017318;28;20040;-47
2023/03/14 03:58:52;;;;;;;0.30;0.10;;;;;;;13.28;88.66;97947.38;5009070;28;20026;-47
2023/03/14 04:01:17;;;;;;;0.20;0.20;;;;;;;12.96;90.50;97947.69;5036935;28;20025;-48
2023/03/14 04:03:46;;;;;;;0.10;0.10;;;;;;;13.11;89.93;97946.78;5015161;28;20073;-46
2023/03/14 04:06:13;;;;;;;0.25;0.20;;;;;;;13.26;89.11;97947.81;5017879;28;20038;-49
2023/03/14 04:08:41;;;;;;;1.38;0.50;;;;;;;13.24;88.73;97942.09;5015080;28;20033;-49
2023/03/14 04:11:10;;;;;;;0.35;0.22;;;;;;;13.10;88.79;97937.19;5025107;28;20395;-49
2023/03/14 04:13:47;;;;;;;0.50;0.22;;;;;;;12.98;90.09;97937.19;5013262;28;20057;-50
2023/03/14 04:16:16;;;;;;;0.05;0.05;;;;;;;13.04;89.40;97935.47;5023323;28;20098;-46
2023/03/14 04:18:42;;;;;;;0.00;0.00;;;;;;;13.05;90.05;97931.56;5025641;28;20076;-51
2023/03/14 04:21:08;;;;;;;0.43;0.38;;;;;;;13.07;89.87;97921.06;5037694;28;20033;-49
2023/03/14 04:23:49;;;;;;;0.10;0.10;;;;;;;13.23;89.09;97920.91;5036343;28;20075;-49
2023/03/14 04:26:16;;;;;;;0.20;0.10;;;;;;;13.17;89.36;97914.56;5030055;28;20029;-53
2023/03/14 04:28:41;;;;;;;0.28;0.28;;;;;;;13.14;89.42;97913.47;5044939;28;20039;-51
2023/03/14 04:31:13;;;;;;;0.17;0.13;;;;;;;12.99;89.99;97917.84;5033193;28;20026;-52
2023/03/14 04:33:39;;;;;;;0.57;0.57;;;;;;;12.99;89.13;97907.03;5035545;28;20439;-51
2023/03/14 04:36:07;;;;;;;0.20;0.20;;;;;;;13.07;89.61;97907.56;5032765;28;20080;-55
2023/03/14 04:38:32;;;;;;;0.15;0.15;;;;;;;13.22;88.33;97908.59;5026692;28;20025;-55
2023/03/14 04:40:59;;;;;;;0.10;0.10;;;;;;;13.12;88.67;97907.03;5033496;28;20033;-52
2023/03/14 04:43:29;;;;;;;0.30;0.30;;;;;;;13.15;88.69;97898.78;5016972;28;20046;-54
2023/03/14 04:46:01;;;;;;;0.30;0.25;;;;;;;13.12;88.70;97898.91;5036601;28;20038;-53
2023/03/14 04:48:27;;;;;;;3.30;0.45;;;;;;;13.03;89.11;97896.09;5026745;28;20157;-49
2023/03/14 04:50:54;;;;;;;0.15;0.13;;;;;;;13.19;87.91;97891.31;5035743;28;20017;-55
2023/03/14 04:53:20;;;;;;;0.40;0.40;;;;;;;13.30;87.54;97888.97;5041110;28;20037;-55
2023/03/14 04:55:52;;;;;;;0.73;0.63;;;;;;;13.39;87.22;97896.41;5033317;28;20038;-53
2023/03/14 04:58:18;;;;;;;0.38;0.38;;;;;;;13.26;87.02;97899.16;5033059;28;20041;-50
2023/03/14 05:00:45;;;;;;;0.30;0.10;;;;;;;13.30;87.17;97888.97;5033703;28;20119;-48
2023/03/14 05:03:35;;;;;;;0.32;0.32;;;;;;;13.36;86.76;97876.41;5028051;28;20022;-47
2023/03/14 05:06:10;;;;;;;0.10;0.10;;;;;;;13.17;86.81;97891.00;5032495;28;20043;-49
2023/03/14 05:08:44;;;;;;;0.10;0.10;;;;;;;13.38;86.16;97884.84;5044196;28;20037;-52
2023/03/14 05:11:29;;;;;;;0.10;0.10;;;;;;;13.38;85.63;97878.66;5030169;28;20064;-50
2023/03/14 05:14:03;;;;;;;0.45;0.43;;;;;;;13.36;85.74;97879.09;5036986;28;20030;-49
2023/03/14 05:16:52;;;;;;;0.30;0.10;;;;;;;13.28;85.40;97879.78;5005740;28;20046;-50
2023/03/14 05:19:41;;;;;;;0.17;0.17;;;;;;;13.35;85.67;97882.25;5020511;28;20034;-51
2023/03/14 05:22:28;;;;;;;0.98;0.50;;;;;;;13.42;84.98;97871.94;5037435;28;20025;-51
2023/03/14 05:25:32;;;;;;;0.38;0.38;;;;;;;13.36;85.51;97878.34;5031890;28;20520;-49
2023/03/14 05:28:11;;;;;;;0.35;0.35;;;;;;;13.36;85.84;97870.25;5036696;28;20033;-52
2023/03/14 05:30:55;;;;;;;1.98;0.20;;;;;;;13.34;85.44;97872.63;5030285;28;20053;-50
2023/03/14 05:33:20;;;;;;;0.10;0.10;;;;;;;13.27;85.91;97873.66;5035960;28;20033;-51
2023/03/14 05:36:07;;;;;;;0.30;0.30;;;;;;;13.32;85.85;97875.03;5034251;28;20049;-50
2023/03/14 05:38:50;;;;;;;0.05;0.05;;;;;;;13.35;85.99;97869.50;5028350;28;20125;-46
2023/03/14 05:41:48;;;;;;;0.10;0.10;;;;;;;13.34;86.43;97869.94;5021305;28;20037;-50
2023/03/14 05:44:26;;;;;;;0.20;0.20;;;;;;;13.47;85.40;97867.91;5036912;28;20032;-44
2023/03/14 05:47:04;;;;;;;0.10;0.10;;;;;;;13.46;85.31;97874.50;5029082;28;20561;-46
2023/03/14 05:49:48;;;;;;;0.47;0.35;;;;;;;13.39;86.08;97866.66;5019284;28;20048;-46
2023/03/14 05:52:52;;;;;;;0.10;0.10;;;;;;;13.21;86.47;97863.84;4967345;28;20501;-45
2023/03/14 05:55:38;;;;;;;0.13;0.13;;;;;;;13.25;86.20;97857.13;4943863;28;20494;-48
2023/03/14 05:58:19;;;;;;;0.40;0.40;;;;;;;13.20;86.35;97857.69;4994026;28;20038;-46
2023/03/14 06:00:45;;;;;;;0.20;0.20;;;;;;;13.15;86.52;97865.59;5010999;28;20103;-50
2023/03/14 06:03:20;;;;;;;0.50;0.30;;;;;;;13.11;87.06;97854.16;5010950;28;20489;-47
2023/03/14 06:05:50;;;;;;;1.30;0.28;;;;;;;13.21;86.79;97863.84;5010697;28;20033;-45
2023/03/14 06:08:15;;;;;;;0.30;0.17;;;;;;;13.17;87.24;97855.09;5006998;28;20112;-51
2023/03/14 06:10:41;;;;;;;0.30;0.30;;;;;;;13.24;87.22;97862.97;5012375;28;20136;-43
2023/03/14 06:13:07;;;;;;;0.00;0.00;;;;;;;13.25;86.63;97854.44;5014006;28;20029;-51
2023/03/14 06:15:35;;;;;;;2.83;0.32;;;;;;;13.11;87.22;97860.31;5015697;28;20469;-50
2023/03/14 06:18:00;;;;;;;0.00;0.00;;;;;;;13.23;87.21;97864.91;5015817;28;20038;-44
2023/03/14 06:20:26;;;;;;;0.10;0.10;;;;;;;13.23;86.71;97858.75;5016058;28;20025;-45
2023/03/14 06:22:52;;;;;;;0.30;0.30;;;;;;;13.28;86.50;97860.88;5023137;28;20060;-46
2023/03/14 06:25:18;;;;;;;0.30;0.30;;;;;;;13.30;85.65;97861.94;5014196;28;20033;-49
2023/03/14 06:27:46;;;;;;;0.22;0.20;;;;;;;13.37;85.17;97867.13;5024162;28;20438;-45
2023/03/14 06:30:11;;;;;;;0.40;0.40;;;;;;;13.26;84.91;97864.03;5006554;28;20055;-49
2023/03/14 06:32:37;;;;;;;0.22;0.22;;;;;;;13.25;85.44;97873.34;5014516;28;20041;-46
2023/03/14 06:35:08;;;;;;;0.00;0.00;;;;;;;13.13;85.86;97876.09;5003021;28;20056;-47
2023/03/14 06:37:37;;;;;;;0.20;0.20;;;;;;;13.05;86.29;97877.53;5015976;28;20450;-47
2023/03/14 06:40:05;;;;;;;0.25;0.25;;;;;;;13.23;85.56;97877.66;5019609;28;20042;-51
2023/03/14 06:42:51;;;;;;;0.35;0.22;;;;;;;13.36;84.99;97884.50;5000216;28;20056;-44
2023/03/14 06:45:17;;;;;;;0.17;0.17;;;;;;;13.33;84.35;97887.34;5002968;28;20091;-45
2023/03/14 06:47:43;;;;;;;0.20;0.20;;;;;;;13.10;85.36;97906.72;5009915;28;20407;-54
2023/03/14 06:50:11;;;;;;;0.20;0.20;;;;;;;13.05;86.09;97888.34;5013509;28;20040;-53
2023/03/14 06:52:37;;;;;;;0.68;0.30;;;;;;;13.27;85.40;97889.13;5015553;28;20033;-43
2023/03/14 06:55:03;;;;;;;0.10;0.10;;;;;;;13.31;84.93;97893.22;5018437;28;20029;-44
2023/03/14 06:57:30;;;;;;;0.10;0.10;;;;;;;13.30;85.24;97905.19;5019573;28;20053;-50
2023/03/14 06:59:55;;;;;;;0.03;0.03;;;;;;;13.29;85.33;97903.69;5027458;28;20107;-45
2023/03/14 07:02:23;;;;;;;0.10;0.10;;;;;;;13.37;84.60;97904.97;5019435;28;20033;-45
2023/03/14 07:04:48;;;;;;;0.25;0.22;;;;;;;13.46;83.76;97906.94;5028837;28;20056;-48
2023/03/14 07:07:16;;;;;;;0.25;0.25;;;;;;;13.46;84.02;97913.13;5031761;28;20021;-49
2023/03/14 07:09:41;;;;;;;0.20;0.20;;;;;;;13.37;83.93;97923.13;5023890;28;20095;-44
2023/03/14 07:12:07;;;;;;;0.13;0.13;;;;;;;13.45;83.10;97922.41;5026861;28;20029;-45
2023/03/14 07:14:32;;;;;;;0.32;0.20;;;;;;;13.54;82.87;97916.31;5028737;28;20565;-46
2023/03/14 07:16:59;;;;;;;0.10;0.10;;;;;;;13.55;83.05;97921.28;5033816;28;20112;-48
2023/03/14 07:19:25;;;;;;;0.15;0.15;;;;;;;13.49;82.51;97933.13;5024857;28;20163;-46
2023/03/14 07:21:50;;;;;;;0.10;0.00;;;;;;;13.47;82.30;97936.25;5027412;28;20438;-50
2023/03/14 07:24:21;;;;;;;0.10;0.10;;;;;;;13.38;82.83;97938.13;5024497;28;20026;-47
2023/03/14 07:26:46;;;;;;;0.13;0.13;;;;;;;13.31;83.21;97933.00;5028050;28;20161;-48
2023/03/14 07:29:12;;;;;;;0.25;0.25;;;;;;;13.36;83.30;97938.59;5019853;28;20037;-46
2023/03/14 07:31:40;;;;;;;2.78;0.55;;;;;;;13.30;83.19;97936.88;5016746;28;20496;-46
2023/03/14 07:34:05;;;;;;;0.17;0.17;;;;;;;13.17;83.53;97933.47;5015756;28;20034;-46
2023/03/14 07:36:35;;;;;;;0.38;0.10;;;;;;;13.04;83.47;97932.78;5025849;28;20029;-46
2023/03/14 07:39:02;;;;;;;0.25;0.25;;;;;;;13.20;83.43;97935.31;5026249;28;20033;-47
2023/03/14 07:41:27;;;;;;;0.10;0.10;;;;;;;13.27;82.45;97948.56;5026643;28;20526;-50
2023/03/14 07:44:11;;;;;;;0.15;0.15;;;;;;;13.30;82.64;97937.63;5033498;28;20028;-48
2023/03/14 07:46:37;;;;;;;0.10;0.10;;;;;;;13.41;82.56;97951.53;5036555;28;20025;-45
2023/03/14 07:49:02;;;;;;;0.20;0.20;;;;;;;13.53;81.63;97948.00;5035648;28;20108;-46
2023/03/14 07:51:28;;;;;;;0.22;0.20;;;;;;;13.71;80.90;97960.13;5032420;28;20017;-51
2023/03/14 07:53:53;;;;;;;0.20;0.20;;;;;;;13.51;81.28;97938.84;5040505;28;20119;-49
2023/03/14 07:56:18;;;;;;;0.60;0.13;;;;;;;13.58;81.22;97939.34;5039388;28;20049;-44
2023/03/14 07:58:44;;;;;;;0.30;0.30;;;;;;;13.70;80.34;97948.56;5027128;28;20045;-47
2023/03/14 08:01:10;;;;;;;0.05;0.05;;;;;;;13.59;80.57;97942.78;5013174;28;20048;-44
2023/03/14 08:03:35;;;;;;;0.00;0.00;;;;;;;13.67;80.58;97944.03;5014914;28;20018;-48
2023/03/14 08:06:01;;;;;;;0.30;0.20;;;;;;;13.55;80.79;97952.97;5030190;28;20041;-45
2023/03/14 08:08:26;;;;;;;2.08;0.60;;;;;;;13.48;81.34;97947.81;5019545;28;20038;-50
2023/03/14 08:10:51;;;;;;;0.20;0.20;;;;;;;13.63;80.94;97948.09;5020336;28;20037;-47
2023/03/14 08:13:18;;;;;;;0.22;0.22;;;;;;;13.59;80.83;97946.25;5011178;28;20045;-48
2023/03/14 08:15:48;;;;;;;0.00;0.00;;;;;;;13.43;81.71;97953.81;5016452;28;20096;-49
2023/03/14 08:18:13;;;;;;;0.50;0.25;;;;;;;13.56;81.46;97943.69;5022733;28;20460;-44
2023/03/14 08:20:39;;;;;;;0.28;0.28;;;;;;;13.71;80.52;97950.06;5029252;28;20037;-51
2023/03/14 08:23:04;;;;;;;0.10;0.10;;;;;;;13.66;81.10;97956.06;5029582;28;20021;-45
2023/03/14 08:25:33;;;;;;;0.10;0.10;;;;;;;13.73;81.39;97944.22;5029288;28;20508;-47
2023/03/14 08:27:59;;;;;;;0.63;0.45;;;;;;;13.81;81.04;97931.94;5021635;28;20038;-51
2023/03/14 08:30:25;;;;;;;0.10;0.10;;;;;;;13.89;80.95;97938.59;5026679;28;20481;-48
2023/03/14 08:32:50;;;;;;;2.47;0.30;;;;;;;14.11;80.10;97940.06;5022236;28;20034;-46
2023/03/14 08:35:16;;;;;;;0.28;0.28;;;;;;;14.14;80.23;97952.72;5026650;28;20503;-46
2023/03/14 08:37:41;;;;;;;0.20;0.15;;;;;;;14.33;79.88;97946.19;5020385;28;20395;-47
2023/03/14 08:40:11;;;;;;;0.20;0.15;;;;;;;14.48;78.64;97941.72;5029388;28;20527;-46
2023/03/14 08:42:37;;;;;;;0.10;0.08;;;;;;;14.36;78.28;97945.28;5029838;28;20086;-47
2023/03/14 08:45:04;;;;;;;0.20;0.20;;;;;;;14.34;78.68;97946.97;5013231;28;20029;-47
2023/03/14 08:47:29;;;;;;;0.60;0.40;;;;;;;14.46;78.10;97943.38;5014565;28;20057;-48
2023/03/14 08:49:55;;;;;;;0.30;0.30;;;;;;;14.41;78.24;97943.97;5011667;28;20077;-49
2023/03/14 08:52:21;;;;;;;0.45;0.43;;;;;;;14.37;78.10;97956.88;5018431;28;20146;-48
2023/03/14 08:54:47;;;;;;;0.25;0.22;;;;;;;14.39;77.91;97943.66;5000732;28;20022;-49
2023/03/14 08:57:12;;;;;;;0.68;0.60;;;;;;;14.29;78.57;97940.16;5021868;28;20029;-48
2023/03/14 08:59:38;;;;;;;0.68;0.55;;;;;;;14.30;78.75;97936.25;5027418;28;20037;-50
2023/03/14 09:02:04;;;;;;;0.60;0.20;;;;;;;14.30;79.01;97930.09;5017842;28;20037;-51
2023/03/14 09:04:32;;;;;;;0.32;0.30;;;;;;;14.16;78.91;97930.59;5037702;28;20028;-50
2023/03/14 09:06:59;;;;;;;0.55;0.25;;;;;;;14.28;79.05;97927.09;5016808;28;20049;-48
2023/03/14 09:09:26;;;;;;;0.52;0.52;;;;;;;14.19;79.62;97937.81;5010747;28;20052;-50
2023/03/14 09:11:52;;;;;;;1.50;0.43;;;;;;;14.30;79.07;97930.84;5015003;28;20048;-55
2023/03/14 09:14:18;;;;;;;0.30;0.22;;;;;;;14.22;78.32;97940.41;5010643;28;20025;-50
2023/03/14 09:16:43;;;;;;;1.10;0.40;;;;;;;14.11;78.33;97937.34;5027221;28;20029;-48
2023/03/14 09:19:09;;;;;;;1.83;0.40;;;;;;;14.29;77.87;97932.03;5035825;28;20029;-47
2023/03/14 09:21:34;;;;;;;0.90;0.70;;;;;;;14.20;78.41;97940.13;5035583;28;20037;-48
2023/03/14 09:24:00;;;;;;;0.45;0.45;;;;;;;14.31;78.29;97924.22;5027063;28;20472;-50
2023/03/14 09:26:26;;;;;;;0.60;0.40;;;;;;;14.35;78.18;97932.22;5025655;28;20116;-47
2023/03/14 09:28:52;;;;;;;0.68;0.40;;;;;;;14.34;78.00;97928.00;5035100;28;20120;-46
2023/03/14 09:31:17;;;;;;;0.30;0.30;;;;;;;14.35;78.08;97943.81;5028290;28;20048;-47
2023/03/14 09:33:44;;;;;;;0.75;0.45;;;;;;;14.12;78.60;97924.56;5028751;28;20108;-49
2023/03/14 09:36:10;;;;;;;0.20;0.20;;;;;;;14.30;78.49;97930.09;5024293;28;20038;-47
2023/03/14 09:38:36;;;;;;;2.90;0.73;;;;;;;14.34;77.98;97917.19;5028236;28;20732;-48
2023/03/14 09:41:09;;;;;;;0.55;0.30;;;;;;;14.39;77.98;97936.28;5027566;28;20121;-46
2023/03/14 09:43:36;;;;;;;0.15;0.15;;;;;;;14.19;78.42;97937.81;5025958;28;20084;-50
2023/03/14 09:46:02;;;;;;;1.40;0.68;;;;;;;14.25;78.39;97936.81;5019356;28;20649;-47
2023/03/14 09:48:32;;;;;;;0.30;0.30;;;;;;;14.22;79.45;97945.84;5024192;28;20036;-49
2023/03/14 09:51:02;;;;;;;0.20;0.20;;;;;;;14.22;79.41;97951.25;5016893;28;20030;-49
2023/03/14 09:53:37;;;;;;;0.15;0.15;;;;;;;13.94;81.34;97938.78;5021534;28;20033;-47
2023/03/14 09:56:03;;;;;;;0.95;0.30;;;;;;;14.23;80.39;97947.31;5020519;28;20764;-47
2023/03/14 09:58:29;;;;;;;6.28;0.80;;;;;;;14.19;80.67;97962.19;5020094;28;20166;-47
2023/03/14 10:00:57;;;;;;;0.10;0.10;;;;;;;14.09;81.18;97953.28;5015521;28;20030;-47
2023/03/14 10:03:29;;;;;;;0.40;0.20;;;;;;;14.01;82.00;97949.34;5012053;28;22002;-47
2023/03/14 10:05:56;;;;;;;0.30;0.30;;;;;;;13.52;86.87;97949.22;5007651;28;20045;-48
2023/03/14 10:08:21;;;;;;;0.60;0.30;;;;;;;13.20;90.95;97962.34;5008582;28;20037;-47
2023/03/14 10:10:47;;;;;;;4.30;0.60;;;;;;;12.98;93.32;97978.47;5013221;28;20090;-45
2023/03/14 10:13:16;;;;;;;0.03;0.03;;;;;;;13.04;93.40;97984.09;5007209;28;20033;-50
2023/03/14 10:15:47;;;;;;;0.00;0.00;;;;;;;13.39;91.70;97993.72;5008670;28;20045;-45
2023/03/14 10:18:14;;;;;;;0.00;0.00;;;;;;;13.21;93.26;98021.34;5008476;28;20056;-48
2023/03/14 10:20:48;;;;;;;0.10;0.10;;;;;;;12.56;95.74;98037.28;5010647;28;20113;-47
2023/03/14 10:23:13;;;;;;;0.00;0.00;;;;;;;12.20;94.15;98044.91;5011433;28;20392;-47
2023/03/14 10:25:44;;;;;;;0.00;0.00;;;;;;;11.89;96.45;98059.28;5009344;28;20038;-46
2023/03/14 10:28:30;;;;;;;0.10;0.10;;;;;;;11.88;94.83;98077.44;5009469;28;20033;-46
2023/03/14 10:30:57;;;;;;;0.00;0.00;;;;;;;11.55;94.83;98081.38;5014350;28;20034;-43
2023/03/14 10:33:24;;;;;;;0.00;0.00;;;;;;;11.67;94.80;98073.34;5022910;28;20091;-49
2023/03/14 10:35:57;;;;;;;0.10;0.10;;;;;;;11.47;95.72;98082.72;5026401;28;20036;-44
2023/03/14 10:38:26;;;;;;;0.10;0.10;;;;;;;11.44;96.59;98080.88;5043523;28;20511;-46
2023/03/14 10:40:53;;;;;;;0.00;0.00;;;;;;;11.45;96.27;98090.47;5044406;28;20096;-45
2023/03/14 10:43:26;;;;;;;0.10;0.10;;;;;;;11.47;96.65;98109.66;5016145;28;20381;-45
2023/03/14 10:45:57;;;;;;;0.55;0.17;;;;;;;11.43;96.79;98120.53;5030231;28;20025;-44
2023/03/14 10:48:37;;;;;;;0.10;0.10;;;;;;;10.82;97.35;98136.56;5031040;28;20439;-49
2023/03/14 10:51:17;;;;;;;0.10;0.10;;;;;;;10.56;97.80;98142.91;5021955;28;20104;-50
2023/03/14 10:53:44;;;;;;;0.00;0.00;;;;;;;10.58;97.99;98159.41;5028062;28;20040;-46
2023/03/14 10:56:24;;;;;;;0.00;0.00;;;;;;;10.50;97.88;98170.72;5030905;28;20029;-49
2023/03/14 10:58:56;;;;;;;0.10;0.10;;;;;;;10.90;96.86;98194.47;5031104;28;20512;-50
2023/03/14 11:01:32;;;;;;;0.10;0.10;;;;;;;10.78;94.28;98207.84;5019577;28;20037;-47
2023/03/14 11:04:22;;;;;;;0.00;0.00;;;;;;;10.18;95.03;98240.50;5015083;28;20673;-54
2023/03/14 11:06:53;;;;;;;0.00;0.00;;;;;;;9.60;95.47;98244.50;5013321;28;20057;-47
2023/03/14 11:09:32;;;;;;;0.00;0.00;;;;;;;9.27;96.24;98256.13;5017972;28;20067;-45
2023/03/14 11:12:15;;;;;;;0.10;0.10;;;;;;;9.32;96.23;98271.75;5015642;28;20073;-48
2023/03/14 11:14:46;;;;;;;0.00;0.00;;;;;;;9.22;94.53;98275.34;5026688;28;20104;-45
2023/03/14 11:17:22;;;;;;;0.00;0.00;;;;;;;8.98;93.39;98282.56;5047011;28;20037;-44
2023/03/14 11:20:04;;;;;;;0.20;0.20;;;;;;;9.08;95.03;98301.22;5028911;28;20492;-45
2023/03/14 11:22:44;;;;;;;0.10;0.10;;;;;;;9.14;94.68;98309.59;5043902;28;20503;-46
2023/03/14 11:25:36;;;;;;;0.10;0.10;;;;;;;9.17;93.39;98326.81;5047083;28;20090;-44
2023/03/14 11:28:18;;;;;;;0.20;0.20;;;;;;;9.63;90.97;98338.50;5034460;28;20099;-43
2023/03/14 11:30:56;;;;;;;0.45;0.45;;;;;;;9.35;91.31;98340.81;5030475;28;20041;-50
2023/03/14 11:33:32;;;;;;;0.10;0.10;;;;;;;8.88;88.96;98337.13;5013337;28;20037;-46
2023/03/14 11:36:02;;;;;;;0.10;0.10;;;;;;;8.30;91.66;98364.91;5012597;28;20046;-46
2023/03/14 11:39:00;;;;;;;0.10;0.10;;;;;;;7.91;93.55;98383.91;5012598;28;20029;-48
2023/03/14 11:41:32;;;;;;;0.10;0.10;;;;;;;7.66;94.14;98395.91;4971946;28;20042;-46
2023/03/14 11:44:03;;;;;;;0.20;0.20;;;;;;;7.77;94.80;98402.75;5015686;28;20060;-50
2023/03/14 11:46:42;;;;;;;0.10;0.10;;;;;;;8.05;94.00;98407.91;5013643;28;20037;-46